sensor_id;sensor_type;location;lat;lon;timestamp;P1;durP1;ratioP1;P2;durP2;ratioP2
23745;SDS011;12053;48.878;9.632;2024-01-07T00:00:32;35.00;;;18.85;;
23745;SDS011;12053;48.878;9.632;2024-01-07T00:02:59;33.45;;;18.92;;
23745;SDS011;12053;48.878;9.632;2024-01-07T00:05:26;32.53;;;18.58;;
23745;SDS011;12053;48.878;9.632;2024-01-07T00:07:56;31.85;;;18.92;;
23745;SDS011;12053;48.878;9.632;2024-01-07T00:10:23;34.28;;;19.67;;
23745;SDS011;12053;48.878;9.632;2024-01-07T00:12:50;33.58;;;18.88;;
23745;SDS011;12053;48.878;9.632;2024-01-07T00:15:18;30.55;;;17.80;;
23745;SDS011;12053;48.878;9.632;2024-01-07T00:17:47;29.85;;;17.58;;
23745;SDS011;12053;48.878;9.632;2024-01-07T00:20:15;29.85;;;18.25;;
23745;SDS011;12053;48.878;9.632;2024-01-07T00:22:42;35.22;;;19.05;;
23745;SDS011;12053;48.878;9.632;2024-01-07T00:25:09;33.20;;;18.50;;
23745;SDS011;12053;48.878;9.632;2024-01-07T00:27:36;29.77;;;16.80;;
23745;SDS011;12053;48.878;9.632;2024-01-07T00:30:04;27.95;;;15.45;;
23745;SDS011;12053;48.878;9.632;2024-01-07T00:32:31;24.65;;;15.77;;
23745;SDS011;12053;48.878;9.632;2024-01-07T00:34:59;24.52;;;15.90;;
23745;SDS011;12053;48.878;9.632;2024-01-07T00:37:26;27.13;;;16.27;;
23745;SDS011;12053;48.878;9.632;2024-01-07T00:39:54;26.63;;;15.55;;
23745;SDS011;12053;48.878;9.632;2024-01-07T00:42:21;25.48;;;15.32;;
23745;SDS011;12053;48.878;9.632;2024-01-07T00:44:48;27.98;;;15.57;;
23745;SDS011;12053;48.878;9.632;2024-01-07T00:47:16;24.73;;;15.38;;
23745;SDS011;12053;48.878;9.632;2024-01-07T00:49:43;25.83;;;14.05;;
23745;SDS011;12053;48.878;9.632;2024-01-07T00:52:10;23.20;;;14.60;;
23745;SDS011;12053;48.878;9.632;2024-01-07T00:54:37;24.10;;;15.48;;
23745;SDS011;12053;48.878;9.632;2024-01-07T00:57:05;21.23;;;13.45;;
23745;SDS011;12053;48.878;9.632;2024-01-07T00:59:32;23.58;;;16.27;;
23745;SDS011;12053;48.878;9.632;2024-01-07T01:01:59;29.50;;;15.48;;
23745;SDS011;12053;48.878;9.632;2024-01-07T01:04:26;25.42;;;16.00;;
23745;SDS011;12053;48.878;9.632;2024-01-07T01:06:54;26.67;;;16.33;;
23745;SDS011;12053;48.878;9.632;2024-01-07T01:09:21;25.05;;;16.52;;
23745;SDS011;12053;48.878;9.632;2024-01-07T01:11:49;26.48;;;16.25;;
23745;SDS011;12053;48.878;9.632;2024-01-07T01:14:16;21.67;;;15.98;;
23745;SDS011;12053;48.878;9.632;2024-01-07T01:16:43;27.77;;;17.98;;
23745;SDS011;12053;48.878;9.632;2024-01-07T01:19:10;26.83;;;18.00;;
23745;SDS011;12053;48.878;9.632;2024-01-07T01:21:37;28.20;;;17.88;;
23745;SDS011;12053;48.878;9.632;2024-01-07T01:24:05;26.63;;;17.88;;
23745;SDS011;12053;48.878;9.632;2024-01-07T01:26:32;31.80;;;19.70;;
23745;SDS011;12053;48.878;9.632;2024-01-07T01:28:59;30.10;;;18.75;;
23745;SDS011;12053;48.878;9.632;2024-01-07T01:31:27;28.38;;;18.30;;
23745;SDS011;12053;48.878;9.632;2024-01-07T01:33:54;23.83;;;14.80;;
23745;SDS011;12053;48.878;9.632;2024-01-07T01:36:21;29.00;;;18.33;;
23745;SDS011;12053;48.878;9.632;2024-01-07T01:38:49;27.58;;;17.63;;
23745;SDS011;12053;48.878;9.632;2024-01-07T01:41:16;29.50;;;18.80;;
23745;SDS011;12053;48.878;9.632;2024-01-07T01:43:43;26.35;;;17.50;;
23745;SDS011;12053;48.878;9.632;2024-01-07T01:46:11;28.35;;;17.73;;
23745;SDS011;12053;48.878;9.632;2024-01-07T01:48:39;29.63;;;18.10;;
23745;SDS011;12053;48.878;9.632;2024-01-07T01:51:06;26.60;;;18.27;;
23745;SDS011;12053;48.878;9.632;2024-01-07T01:53:34;29.70;;;19.10;;
23745;SDS011;12053;48.878;9.632;2024-01-07T01:56:01;28.77;;;18.52;;
23745;SDS011;12053;48.878;9.632;2024-01-07T01:58:29;27.65;;;18.35;;
23745;SDS011;12053;48.878;9.632;2024-01-07T02:00:56;28.80;;;18.00;;
23745;SDS011;12053;48.878;9.632;2024-01-07T02:03:23;25.35;;;18.55;;
23745;SDS011;12053;48.878;9.632;2024-01-07T02:05:52;31.40;;;19.45;;
23745;SDS011;12053;48.878;9.632;2024-01-07T02:08:20;27.48;;;17.95;;
23745;SDS011;12053;48.878;9.632;2024-01-07T02:10:47;33.25;;;19.80;;
23745;SDS011;12053;48.878;9.632;2024-01-07T02:13:15;26.70;;;17.67;;
23745;SDS011;12053;48.878;9.632;2024-01-07T02:15:42;25.38;;;17.83;;
23745;SDS011;12053;48.878;9.632;2024-01-07T02:18:10;24.50;;;17.00;;
23745;SDS011;12053;48.878;9.632;2024-01-07T02:20:37;25.20;;;16.60;;
23745;SDS011;12053;48.878;9.632;2024-01-07T02:23:04;23.15;;;16.27;;
23745;SDS011;12053;48.878;9.632;2024-01-07T02:25:35;26.52;;;17.30;;
23745;SDS011;12053;48.878;9.632;2024-01-07T02:28:03;27.52;;;16.55;;
23745;SDS011;12053;48.878;9.632;2024-01-07T02:30:31;29.15;;;17.50;;
23745;SDS011;12053;48.878;9.632;2024-01-07T02:33:00;25.23;;;16.60;;
23745;SDS011;12053;48.878;9.632;2024-01-07T02:35:29;27.02;;;16.42;;
23745;SDS011;12053;48.878;9.632;2024-01-07T02:37:56;27.85;;;18.00;;
23745;SDS011;12053;48.878;9.632;2024-01-07T02:40:24;27.10;;;17.83;;
23745;SDS011;12053;48.878;9.632;2024-01-07T02:42:51;28.67;;;18.23;;
23745;SDS011;12053;48.878;9.632;2024-01-07T02:45:18;29.70;;;18.85;;
23745;SDS011;12053;48.878;9.632;2024-01-07T02:47:46;32.55;;;18.63;;
23745;SDS011;12053;48.878;9.632;2024-01-07T02:50:13;33.92;;;20.45;;
23745;SDS011;12053;48.878;9.632;2024-01-07T02:52:42;32.70;;;19.45;;
23745;SDS011;12053;48.878;9.632;2024-01-07T02:55:09;30.27;;;20.50;;
23745;SDS011;12053;48.878;9.632;2024-01-07T02:57:36;33.22;;;20.13;;
23745;SDS011;12053;48.878;9.632;2024-01-07T03:00:04;32.17;;;20.25;;
23745;SDS011;12053;48.878;9.632;2024-01-07T03:02:31;33.85;;;20.63;;
23745;SDS011;12053;48.878;9.632;2024-01-07T03:04:59;29.15;;;19.77;;
23745;SDS011;12053;48.878;9.632;2024-01-07T03:07:26;32.25;;;20.70;;
23745;SDS011;12053;48.878;9.632;2024-01-07T03:09:53;31.42;;;19.80;;
23745;SDS011;12053;48.878;9.632;2024-01-07T03:12:21;30.80;;;19.45;;
23745;SDS011;12053;48.878;9.632;2024-01-07T03:14:48;34.85;;;20.60;;
23745;SDS011;12053;48.878;9.632;2024-01-07T03:17:15;32.35;;;20.42;;
23745;SDS011;12053;48.878;9.632;2024-01-07T03:19:43;33.25;;;20.48;;
23745;SDS011;12053;48.878;9.632;2024-01-07T03:22:10;32.08;;;20.98;;
23745;SDS011;12053;48.878;9.632;2024-01-07T03:24:38;33.17;;;20.55;;
23745;SDS011;12053;48.878;9.632;2024-01-07T03:27:05;39.10;;;22.02;;
23745;SDS011;12053;48.878;9.632;2024-01-07T03:29:32;33.05;;;21.70;;
23745;SDS011;12053;48.878;9.632;2024-01-07T03:31:59;34.25;;;21.52;;
23745;SDS011;12053;48.878;9.632;2024-01-07T03:34:27;34.92;;;21.90;;
23745;SDS011;12053;48.878;9.632;2024-01-07T03:36:54;34.33;;;21.23;;
23745;SDS011;12053;48.878;9.632;2024-01-07T03:39:21;35.83;;;20.80;;
23745;SDS011;12053;48.878;9.632;2024-01-07T03:41:49;31.10;;;20.45;;
23745;SDS011;12053;48.878;9.632;2024-01-07T03:44:16;27.90;;;18.73;;
23745;SDS011;12053;48.878;9.632;2024-01-07T03:46:43;32.78;;;21.58;;
23745;SDS011;12053;48.878;9.632;2024-01-07T03:49:10;31.50;;;20.58;;
23745;SDS011;12053;48.878;9.632;2024-01-07T03:51:38;33.25;;;21.73;;
23745;SDS011;12053;48.878;9.632;2024-01-07T03:54:05;37.13;;;21.88;;
23745;SDS011;12053;48.878;9.632;2024-01-07T03:56:32;33.78;;;21.80;;
23745;SDS011;12053;48.878;9.632;2024-01-07T03:58:59;34.10;;;21.02;;
23745;SDS011;12053;48.878;9.632;2024-01-07T04:01:27;34.60;;;22.20;;
23745;SDS011;12053;48.878;9.632;2024-01-07T04:03:54;31.67;;;20.00;;
23745;SDS011;12053;48.878;9.632;2024-01-07T04:06:22;31.65;;;20.65;;
23745;SDS011;12053;48.878;9.632;2024-01-07T04:08:49;32.92;;;21.60;;
23745;SDS011;12053;48.878;9.632;2024-01-07T04:11:16;42.47;;;26.08;;
23745;SDS011;12053;48.878;9.632;2024-01-07T04:13:43;43.88;;;25.60;;
23745;SDS011;12053;48.878;9.632;2024-01-07T04:16:18;33.75;;;22.08;;
23745;SDS011;12053;48.878;9.632;2024-01-07T04:18:46;37.28;;;21.70;;
23745;SDS011;12053;48.878;9.632;2024-01-07T04:21:19;31.30;;;19.90;;
23745;SDS011;12053;48.878;9.632;2024-01-07T04:23:46;33.80;;;21.42;;
23745;SDS011;12053;48.878;9.632;2024-01-07T04:26:13;32.70;;;21.20;;
23745;SDS011;12053;48.878;9.632;2024-01-07T04:28:41;33.53;;;21.80;;
23745;SDS011;12053;48.878;9.632;2024-01-07T04:31:09;30.73;;;20.65;;
23745;SDS011;12053;48.878;9.632;2024-01-07T04:33:36;32.67;;;21.63;;
23745;SDS011;12053;48.878;9.632;2024-01-07T04:36:04;35.92;;;21.90;;
23745;SDS011;12053;48.878;9.632;2024-01-07T04:38:31;37.72;;;22.55;;
23745;SDS011;12053;48.878;9.632;2024-01-07T04:40:58;35.08;;;21.73;;
23745;SDS011;12053;48.878;9.632;2024-01-07T04:43:25;32.50;;;22.95;;
23745;SDS011;12053;48.878;9.632;2024-01-07T04:45:53;34.88;;;22.02;;
23745;SDS011;12053;48.878;9.632;2024-01-07T04:48:20;35.30;;;21.92;;
23745;SDS011;12053;48.878;9.632;2024-01-07T04:50:48;34.50;;;21.73;;
23745;SDS011;12053;48.878;9.632;2024-01-07T04:53:15;36.97;;;22.33;;
23745;SDS011;12053;48.878;9.632;2024-01-07T04:55:42;37.92;;;24.05;;
23745;SDS011;12053;48.878;9.632;2024-01-07T04:58:09;34.83;;;20.65;;
23745;SDS011;12053;48.878;9.632;2024-01-07T05:00:36;36.22;;;24.05;;
23745;SDS011;12053;48.878;9.632;2024-01-07T05:03:04;36.38;;;22.77;;
23745;SDS011;12053;48.878;9.632;2024-01-07T05:05:31;36.75;;;23.20;;
23745;SDS011;12053;48.878;9.632;2024-01-07T05:07:58;40.20;;;24.73;;
23745;SDS011;12053;48.878;9.632;2024-01-07T05:10:26;37.60;;;24.27;;
23745;SDS011;12053;48.878;9.632;2024-01-07T05:12:54;38.08;;;24.13;;
23745;SDS011;12053;48.878;9.632;2024-01-07T05:15:21;34.20;;;23.90;;
23745;SDS011;12053;48.878;9.632;2024-01-07T05:17:48;38.85;;;24.42;;
23745;SDS011;12053;48.878;9.632;2024-01-07T05:20:16;39.15;;;24.25;;
23745;SDS011;12053;48.878;9.632;2024-01-07T05:22:43;28.08;;;15.45;;
23745;SDS011;12053;48.878;9.632;2024-01-07T05:25:10;34.80;;;23.30;;
23745;SDS011;12053;48.878;9.632;2024-01-07T05:27:38;35.20;;;23.80;;
23745;SDS011;12053;48.878;9.632;2024-01-07T05:30:05;37.42;;;22.92;;
23745;SDS011;12053;48.878;9.632;2024-01-07T05:32:34;32.25;;;22.35;;
23745;SDS011;12053;48.878;9.632;2024-01-07T05:35:01;35.30;;;22.65;;
23745;SDS011;12053;48.878;9.632;2024-01-07T05:37:29;36.63;;;23.27;;
23745;SDS011;12053;48.878;9.632;2024-01-07T05:39:56;37.05;;;23.70;;
23745;SDS011;12053;48.878;9.632;2024-01-07T05:42:23;35.72;;;23.67;;
23745;SDS011;12053;48.878;9.632;2024-01-07T05:44:51;36.55;;;21.67;;
23745;SDS011;12053;48.878;9.632;2024-01-07T05:47:18;32.95;;;21.63;;
23745;SDS011;12053;48.878;9.632;2024-01-07T05:49:45;28.38;;;18.38;;
23745;SDS011;12053;48.878;9.632;2024-01-07T05:52:13;30.30;;;20.58;;
23745;SDS011;12053;48.878;9.632;2024-01-07T05:54:40;26.27;;;17.88;;
23745;SDS011;12053;48.878;9.632;2024-01-07T05:57:07;29.75;;;18.98;;
23745;SDS011;12053;48.878;9.632;2024-01-07T05:59:34;25.38;;;16.38;;
23745;SDS011;12053;48.878;9.632;2024-01-07T06:02:03;23.00;;;17.30;;
23745;SDS011;12053;48.878;9.632;2024-01-07T06:04:30;27.75;;;17.38;;
23745;SDS011;12053;48.878;9.632;2024-01-07T06:06:58;17.90;;;10.70;;
23745;SDS011;12053;48.878;9.632;2024-01-07T06:09:25;21.83;;;14.00;;
23745;SDS011;12053;48.878;9.632;2024-01-07T06:11:53;23.33;;;15.98;;
23745;SDS011;12053;48.878;9.632;2024-01-07T06:14:20;25.70;;;17.15;;
23745;SDS011;12053;48.878;9.632;2024-01-07T06:16:48;26.02;;;17.00;;
23745;SDS011;12053;48.878;9.632;2024-01-07T06:19:16;23.55;;;16.52;;
23745;SDS011;12053;48.878;9.632;2024-01-07T06:21:44;28.27;;;18.00;;
23745;SDS011;12053;48.878;9.632;2024-01-07T06:24:11;24.98;;;16.20;;
23745;SDS011;12053;48.878;9.632;2024-01-07T06:26:38;31.70;;;18.90;;
23745;SDS011;12053;48.878;9.632;2024-01-07T06:29:07;29.70;;;19.23;;
23745;SDS011;12053;48.878;9.632;2024-01-07T06:31:36;30.42;;;20.08;;
23745;SDS011;12053;48.878;9.632;2024-01-07T06:34:03;32.33;;;21.00;;
23745;SDS011;12053;48.878;9.632;2024-01-07T06:36:31;32.47;;;20.75;;
23745;SDS011;12053;48.878;9.632;2024-01-07T06:38:59;31.23;;;19.25;;
23745;SDS011;12053;48.878;9.632;2024-01-07T06:41:26;31.95;;;19.75;;
23745;SDS011;12053;48.878;9.632;2024-01-07T06:43:53;35.08;;;21.38;;
23745;SDS011;12053;48.878;9.632;2024-01-07T06:46:23;27.73;;;17.95;;
23745;SDS011;12053;48.878;9.632;2024-01-07T06:48:50;17.83;;;10.45;;
23745;SDS011;12053;48.878;9.632;2024-01-07T06:51:17;17.52;;;11.82;;
23745;SDS011;12053;48.878;9.632;2024-01-07T06:53:45;18.92;;;13.38;;
23745;SDS011;12053;48.878;9.632;2024-01-07T06:56:13;16.95;;;11.63;;
23745;SDS011;12053;48.878;9.632;2024-01-07T06:58:40;16.35;;;12.48;;
23745;SDS011;12053;48.878;9.632;2024-01-07T07:01:08;16.83;;;12.07;;
23745;SDS011;12053;48.878;9.632;2024-01-07T07:03:35;20.67;;;13.93;;
23745;SDS011;12053;48.878;9.632;2024-01-07T07:06:02;21.02;;;14.23;;
23745;SDS011;12053;48.878;9.632;2024-01-07T07:08:30;20.00;;;12.93;;
23745;SDS011;12053;48.878;9.632;2024-01-07T07:10:57;26.58;;;16.63;;
23745;SDS011;12053;48.878;9.632;2024-01-07T07:13:24;24.27;;;15.27;;
23745;SDS011;12053;48.878;9.632;2024-01-07T07:15:51;39.15;;;20.73;;
23745;SDS011;12053;48.878;9.632;2024-01-07T07:18:18;27.42;;;16.88;;
23745;SDS011;12053;48.878;9.632;2024-01-07T07:20:46;20.00;;;12.77;;
23745;SDS011;12053;48.878;9.632;2024-01-07T07:23:13;23.13;;;14.85;;
23745;SDS011;12053;48.878;9.632;2024-01-07T07:25:40;23.73;;;16.15;;
23745;SDS011;12053;48.878;9.632;2024-01-07T07:28:07;41.78;;;27.02;;
23745;SDS011;12053;48.878;9.632;2024-01-07T07:30:35;33.72;;;23.13;;
23745;SDS011;12053;48.878;9.632;2024-01-07T07:33:02;29.45;;;18.58;;
23745;SDS011;12053;48.878;9.632;2024-01-07T07:35:30;27.02;;;16.98;;
23745;SDS011;12053;48.878;9.632;2024-01-07T07:37:57;23.80;;;15.45;;
23745;SDS011;12053;48.878;9.632;2024-01-07T07:40:24;24.90;;;16.15;;
23745;SDS011;12053;48.878;9.632;2024-01-07T07:42:51;23.90;;;15.98;;
23745;SDS011;12053;48.878;9.632;2024-01-07T07:45:19;25.27;;;15.75;;
23745;SDS011;12053;48.878;9.632;2024-01-07T07:47:46;25.27;;;16.00;;
23745;SDS011;12053;48.878;9.632;2024-01-07T07:50:13;21.42;;;14.93;;
23745;SDS011;12053;48.878;9.632;2024-01-07T07:52:41;26.88;;;15.90;;
23745;SDS011;12053;48.878;9.632;2024-01-07T07:55:10;25.40;;;15.43;;
23745;SDS011;12053;48.878;9.632;2024-01-07T07:57:37;26.58;;;15.23;;
23745;SDS011;12053;48.878;9.632;2024-01-07T08:00:06;23.88;;;15.02;;
23745;SDS011;12053;48.878;9.632;2024-01-07T08:02:33;24.13;;;15.07;;
23745;SDS011;12053;48.878;9.632;2024-01-07T08:05:01;24.23;;;14.93;;
23745;SDS011;12053;48.878;9.632;2024-01-07T08:07:28;25.63;;;16.55;;
23745;SDS011;12053;48.878;9.632;2024-01-07T08:09:55;23.63;;;14.15;;
23745;SDS011;12053;48.878;9.632;2024-01-07T08:12:24;22.80;;;13.77;;
23745;SDS011;12053;48.878;9.632;2024-01-07T08:14:51;28.23;;;14.25;;
23745;SDS011;12053;48.878;9.632;2024-01-07T08:17:18;21.20;;;13.85;;
23745;SDS011;12053;48.878;9.632;2024-01-07T08:19:46;22.10;;;14.50;;
23745;SDS011;12053;48.878;9.632;2024-01-07T08:22:13;18.95;;;12.90;;
23745;SDS011;12053;48.878;9.632;2024-01-07T08:24:40;20.13;;;13.60;;
23745;SDS011;12053;48.878;9.632;2024-01-07T08:27:08;20.75;;;13.63;;
23745;SDS011;12053;48.878;9.632;2024-01-07T08:29:35;19.42;;;13.02;;
23745;SDS011;12053;48.878;9.632;2024-01-07T08:32:03;19.95;;;13.23;;
23745;SDS011;12053;48.878;9.632;2024-01-07T08:34:30;27.27;;;15.45;;
23745;SDS011;12053;48.878;9.632;2024-01-07T08:36:57;25.00;;;16.10;;
23745;SDS011;12053;48.878;9.632;2024-01-07T08:39:25;24.00;;;15.15;;
23745;SDS011;12053;48.878;9.632;2024-01-07T08:41:55;22.55;;;14.02;;
23745;SDS011;12053;48.878;9.632;2024-01-07T08:44:22;20.05;;;12.50;;
23745;SDS011;12053;48.878;9.632;2024-01-07T08:46:49;22.05;;;12.23;;
23745;SDS011;12053;48.878;9.632;2024-01-07T08:49:16;16.15;;;11.38;;
23745;SDS011;12053;48.878;9.632;2024-01-07T08:51:44;13.38;;;7.95;;
23745;SDS011;12053;48.878;9.632;2024-01-07T08:54:11;17.35;;;11.20;;
23745;SDS011;12053;48.878;9.632;2024-01-07T08:56:38;17.60;;;11.57;;
23745;SDS011;12053;48.878;9.632;2024-01-07T08:59:06;18.25;;;11.07;;
23745;SDS011;12053;48.878;9.632;2024-01-07T09:01:34;14.82;;;10.65;;
23745;SDS011;12053;48.878;9.632;2024-01-07T09:04:01;16.27;;;10.55;;
23745;SDS011;12053;48.878;9.632;2024-01-07T09:06:29;18.08;;;11.88;;
23745;SDS011;12053;48.878;9.632;2024-01-07T09:08:56;10.98;;;6.38;;
23745;SDS011;12053;48.878;9.632;2024-01-07T09:11:24;14.60;;;9.70;;
23745;SDS011;12053;48.878;9.632;2024-01-07T09:13:51;17.15;;;10.98;;
23745;SDS011;12053;48.878;9.632;2024-01-07T09:16:18;16.48;;;10.52;;
23745;SDS011;12053;48.878;9.632;2024-01-07T09:18:46;16.52;;;11.10;;
23745;SDS011;12053;48.878;9.632;2024-01-07T09:21:13;13.88;;;8.43;;
23745;SDS011;12053;48.878;9.632;2024-01-07T09:23:41;17.52;;;10.70;;
23745;SDS011;12053;48.878;9.632;2024-01-07T09:26:08;13.73;;;10.23;;
23745;SDS011;12053;48.878;9.632;2024-01-07T09:28:36;16.65;;;10.50;;
23745;SDS011;12053;48.878;9.632;2024-01-07T09:31:03;16.17;;;10.25;;
23745;SDS011;12053;48.878;9.632;2024-01-07T09:33:31;13.88;;;8.48;;
23745;SDS011;12053;48.878;9.632;2024-01-07T09:35:58;14.55;;;8.88;;
23745;SDS011;12053;48.878;9.632;2024-01-07T09:38:40;31.97;;;16.33;;
23745;SDS011;12053;48.878;9.632;2024-01-07T09:41:08;16.40;;;10.23;;
23745;SDS011;12053;48.878;9.632;2024-01-07T09:43:35;14.60;;;9.73;;
23745;SDS011;12053;48.878;9.632;2024-01-07T09:46:03;16.42;;;11.65;;
23745;SDS011;12053;48.878;9.632;2024-01-07T09:48:30;18.08;;;12.32;;
23745;SDS011;12053;48.878;9.632;2024-01-07T09:51:00;17.65;;;11.50;;
23745;SDS011;12053;48.878;9.632;2024-01-07T09:53:30;15.88;;;10.32;;
23745;SDS011;12053;48.878;9.632;2024-01-07T09:58:32;18.20;;;11.68;;
23745;SDS011;12053;48.878;9.632;2024-01-07T10:01:00;15.55;;;10.57;;
23745;SDS011;12053;48.878;9.632;2024-01-07T10:03:27;15.95;;;9.70;;
23745;SDS011;12053;48.878;9.632;2024-01-07T10:05:54;12.45;;;7.80;;
23745;SDS011;12053;48.878;9.632;2024-01-07T10:08:22;15.60;;;10.35;;
23745;SDS011;12053;48.878;9.632;2024-01-07T10:10:52;10.30;;;5.32;;
23745;SDS011;12053;48.878;9.632;2024-01-07T10:13:20;10.77;;;5.80;;
23745;SDS011;12053;48.878;9.632;2024-01-07T10:15:48;15.40;;;9.90;;
23745;SDS011;12053;48.878;9.632;2024-01-07T10:18:15;16.15;;;10.40;;
23745;SDS011;12053;48.878;9.632;2024-01-07T10:20:43;16.77;;;10.88;;
23745;SDS011;12053;48.878;9.632;2024-01-07T10:23:10;16.80;;;10.25;;
23745;SDS011;12053;48.878;9.632;2024-01-07T10:25:38;15.05;;;10.15;;
23745;SDS011;12053;48.878;9.632;2024-01-07T10:28:06;8.43;;;5.75;;
23745;SDS011;12053;48.878;9.632;2024-01-07T10:30:33;10.38;;;6.53;;
23745;SDS011;12053;48.878;9.632;2024-01-07T10:33:00;14.02;;;8.95;;
23745;SDS011;12053;48.878;9.632;2024-01-07T10:35:35;13.05;;;8.80;;
23745;SDS011;12053;48.878;9.632;2024-01-07T10:38:02;14.10;;;8.82;;
23745;SDS011;12053;48.878;9.632;2024-01-07T10:40:30;15.27;;;10.57;;
23745;SDS011;12053;48.878;9.632;2024-01-07T10:42:59;13.27;;;8.23;;
23745;SDS011;12053;48.878;9.632;2024-01-07T10:45:27;13.68;;;9.63;;
23745;SDS011;12053;48.878;9.632;2024-01-07T10:47:55;10.15;;;7.07;;
23745;SDS011;12053;48.878;9.632;2024-01-07T10:50:26;16.35;;;9.75;;
23745;SDS011;12053;48.878;9.632;2024-01-07T10:52:57;15.32;;;9.40;;
23745;SDS011;12053;48.878;9.632;2024-01-07T10:55:25;13.25;;;8.70;;
23745;SDS011;12053;48.878;9.632;2024-01-07T10:57:53;14.15;;;9.18;;
23745;SDS011;12053;48.878;9.632;2024-01-07T11:00:20;15.27;;;10.07;;
23745;SDS011;12053;48.878;9.632;2024-01-07T11:05:27;15.48;;;10.65;;
23745;SDS011;12053;48.878;9.632;2024-01-07T11:08:01;16.70;;;10.35;;
23745;SDS011;12053;48.878;9.632;2024-01-07T11:10:41;14.35;;;9.93;;
23745;SDS011;12053;48.878;9.632;2024-01-07T11:13:37;15.65;;;10.00;;
23745;SDS011;12053;48.878;9.632;2024-01-07T11:16:05;19.30;;;11.32;;
23745;SDS011;12053;48.878;9.632;2024-01-07T11:18:39;12.73;;;7.38;;
23745;SDS011;12053;48.878;9.632;2024-01-07T11:21:07;16.52;;;11.38;;
23745;SDS011;12053;48.878;9.632;2024-01-07T11:23:35;14.48;;;10.10;;
23745;SDS011;12053;48.878;9.632;2024-01-07T11:26:05;16.45;;;11.10;;
23745;SDS011;12053;48.878;9.632;2024-01-07T11:31:12;12.00;;;8.68;;
23745;SDS011;12053;48.878;9.632;2024-01-07T11:33:41;11.80;;;8.23;;
23745;SDS011;12053;48.878;9.632;2024-01-07T11:36:10;9.75;;;5.78;;
23745;SDS011;12053;48.878;9.632;2024-01-07T11:38:38;10.60;;;7.55;;
23745;SDS011;12053;48.878;9.632;2024-01-07T11:41:05;12.68;;;8.68;;
23745;SDS011;12053;48.878;9.632;2024-01-07T11:43:33;9.45;;;5.70;;
23745;SDS011;12053;48.878;9.632;2024-01-07T11:46:00;10.77;;;6.68;;
23745;SDS011;12053;48.878;9.632;2024-01-07T11:48:28;11.30;;;7.25;;
23745;SDS011;12053;48.878;9.632;2024-01-07T11:50:55;13.80;;;9.00;;
23745;SDS011;12053;48.878;9.632;2024-01-07T11:53:23;18.08;;;10.57;;
23745;SDS011;12053;48.878;9.632;2024-01-07T11:55:50;12.73;;;6.80;;
23745;SDS011;12053;48.878;9.632;2024-01-07T11:58:18;33.17;;;15.48;;
23745;SDS011;12053;48.878;9.632;2024-01-07T12:00:46;15.65;;;10.23;;
23745;SDS011;12053;48.878;9.632;2024-01-07T12:03:13;14.25;;;10.27;;
23745;SDS011;12053;48.878;9.632;2024-01-07T12:05:41;15.85;;;10.38;;
23745;SDS011;12053;48.878;9.632;2024-01-07T12:08:10;16.38;;;10.75;;
23745;SDS011;12053;48.878;9.632;2024-01-07T12:10:37;16.67;;;11.07;;
23745;SDS011;12053;48.878;9.632;2024-01-07T12:13:04;18.17;;;11.52;;
23745;SDS011;12053;48.878;9.632;2024-01-07T12:15:32;15.32;;;9.57;;
23745;SDS011;12053;48.878;9.632;2024-01-07T12:18:00;12.90;;;7.43;;
23745;SDS011;12053;48.878;9.632;2024-01-07T12:20:28;17.08;;;11.80;;
23745;SDS011;12053;48.878;9.632;2024-01-07T12:23:06;16.42;;;7.95;;
23745;SDS011;12053;48.878;9.632;2024-01-07T12:25:34;18.77;;;11.85;;
23745;SDS011;12053;48.878;9.632;2024-01-07T12:28:01;21.02;;;12.20;;
23745;SDS011;12053;48.878;9.632;2024-01-07T12:30:29;22.05;;;14.35;;
23745;SDS011;12053;48.878;9.632;2024-01-07T12:32:57;16.27;;;11.80;;
23745;SDS011;12053;48.878;9.632;2024-01-07T12:35:25;18.73;;;12.50;;
23745;SDS011;12053;48.878;9.632;2024-01-07T12:37:52;19.73;;;13.27;;
23745;SDS011;12053;48.878;9.632;2024-01-07T12:40:20;18.52;;;10.48;;
23745;SDS011;12053;48.878;9.632;2024-01-07T12:42:47;19.95;;;12.25;;
23745;SDS011;12053;48.878;9.632;2024-01-07T12:45:15;23.08;;;14.85;;
23745;SDS011;12053;48.878;9.632;2024-01-07T12:47:43;19.48;;;12.32;;
23745;SDS011;12053;48.878;9.632;2024-01-07T12:50:11;20.83;;;13.15;;
23745;SDS011;12053;48.878;9.632;2024-01-07T12:52:39;18.35;;;11.50;;
23745;SDS011;12053;48.878;9.632;2024-01-07T12:55:07;19.85;;;12.40;;
23745;SDS011;12053;48.878;9.632;2024-01-07T12:57:34;25.05;;;15.40;;
23745;SDS011;12053;48.878;9.632;2024-01-07T13:00:03;23.02;;;14.40;;
23745;SDS011;12053;48.878;9.632;2024-01-07T13:02:33;25.63;;;15.95;;
23745;SDS011;12053;48.878;9.632;2024-01-07T13:05:00;23.70;;;14.80;;
23745;SDS011;12053;48.878;9.632;2024-01-07T13:07:29;27.77;;;14.68;;
23745;SDS011;12053;48.878;9.632;2024-01-07T13:09:57;17.23;;;10.63;;
23745;SDS011;12053;48.878;9.632;2024-01-07T13:12:24;20.95;;;13.52;;
23745;SDS011;12053;48.878;9.632;2024-01-07T13:15:08;24.75;;;15.82;;
23745;SDS011;12053;48.878;9.632;2024-01-07T13:17:37;22.45;;;12.80;;
23745;SDS011;12053;48.878;9.632;2024-01-07T13:20:04;20.77;;;11.27;;
23745;SDS011;12053;48.878;9.632;2024-01-07T13:22:33;24.83;;;15.35;;
23745;SDS011;12053;48.878;9.632;2024-01-07T13:25:00;27.10;;;16.80;;
23745;SDS011;12053;48.878;9.632;2024-01-07T13:27:28;23.42;;;15.23;;
23745;SDS011;12053;48.878;9.632;2024-01-07T13:29:58;24.95;;;15.70;;
23745;SDS011;12053;48.878;9.632;2024-01-07T13:32:25;23.42;;;15.10;;
23745;SDS011;12053;48.878;9.632;2024-01-07T13:34:53;26.83;;;16.70;;
23745;SDS011;12053;48.878;9.632;2024-01-07T13:37:20;26.35;;;16.05;;
23745;SDS011;12053;48.878;9.632;2024-01-07T13:39:48;25.10;;;15.90;;
23745;SDS011;12053;48.878;9.632;2024-01-07T13:42:16;22.38;;;12.98;;
23745;SDS011;12053;48.878;9.632;2024-01-07T13:44:43;29.65;;;17.60;;
23745;SDS011;12053;48.878;9.632;2024-01-07T13:47:13;19.02;;;11.00;;
23745;SDS011;12053;48.878;9.632;2024-01-07T13:49:40;49.85;;;24.13;;
23745;SDS011;12053;48.878;9.632;2024-01-07T13:52:08;35.88;;;16.27;;
23745;SDS011;12053;48.878;9.632;2024-01-07T13:54:38;19.85;;;10.70;;
23745;SDS011;12053;48.878;9.632;2024-01-07T13:57:06;19.75;;;11.30;;
23745;SDS011;12053;48.878;9.632;2024-01-07T13:59:34;24.90;;;16.33;;
23745;SDS011;12053;48.878;9.632;2024-01-07T14:02:01;31.52;;;19.92;;
23745;SDS011;12053;48.878;9.632;2024-01-07T14:04:31;21.48;;;11.43;;
23745;SDS011;12053;48.878;9.632;2024-01-07T14:06:58;20.52;;;11.77;;
23745;SDS011;12053;48.878;9.632;2024-01-07T14:09:26;21.08;;;13.73;;
23745;SDS011;12053;48.878;9.632;2024-01-07T14:11:58;20.10;;;13.07;;
23745;SDS011;12053;48.878;9.632;2024-01-07T14:14:25;20.73;;;10.65;;
23745;SDS011;12053;48.878;9.632;2024-01-07T14:16:52;16.95;;;10.05;;
23745;SDS011;12053;48.878;9.632;2024-01-07T14:19:20;19.83;;;12.40;;
23745;SDS011;12053;48.878;9.632;2024-01-07T14:21:48;21.42;;;13.23;;
23745;SDS011;12053;48.878;9.632;2024-01-07T14:24:18;20.92;;;14.35;;
23745;SDS011;12053;48.878;9.632;2024-01-07T14:26:45;20.00;;;13.52;;
23745;SDS011;12053;48.878;9.632;2024-01-07T14:29:13;18.60;;;11.45;;
23745;SDS011;12053;48.878;9.632;2024-01-07T14:31:43;19.27;;;12.82;;
23745;SDS011;12053;48.878;9.632;2024-01-07T14:34:12;19.83;;;12.60;;